Time;durP1;ratioP1;P1;durP2;ratioP2;P2;SDS_P1;SDS_P2;PMS_P1;PMS_P2;Temp;Humidity;BMP_temperature;BMP_pressure;BME280_temperature;BME280_humidity;BME280_pressure;Samples;Min_cycle;Max_cycle;Signal;HPM_P1;HPM_P2
2022/03/20 00:00:31;;;;;;;2.75;1.48;;;;;;;6.36;73.13;103523.31;5031087;28;20493;-66
2022/03/20 00:02:57;;;;;;;7.88;1.50;;;;;;;6.35;74.11;103514.59;5040078;28;20047;-68
2022/03/20 00:05:23;;;;;;;5.05;1.60;;;;;;;6.36;74.00;103519.03;5023977;28;20112;-68
2022/03/20 00:07:48;;;;;;;3.22;1.83;;;;;;;6.28;74.37;103508.75;5026867;28;20029;-68
2022/03/20 00:10:14;;;;;;;5.38;1.95;;;;;;;6.25;75.79;103512.03;5028542;28;20129;-67
2022/03/20 00:12:40;;;;;;;3.17;1.77;;;;;;;6.26;75.24;103510.34;5029155;28;20033;-68
2022/03/20 00:15:07;;;;;;;2.33;1.60;;;;;;;6.16;76.10;103516.53;5030550;28;20042;-68
2022/03/20 00:17:32;;;;;;;3.85;1.90;;;;;;;6.16;77.76;103519.16;5032049;28;20108;-65
2022/03/20 00:19:58;;;;;;;2.35;1.98;;;;;;;6.02;77.12;103505.94;5030624;28;20025;-67
2022/03/20 00:22:24;;;;;;;4.35;1.77;;;;;;;5.99;77.56;103505.69;5027646;28;20026;-67
2022/03/20 00:24:50;;;;;;;4.65;1.80;;;;;;;6.04;77.61;103496.50;5028677;28;20052;-67
2022/03/20 00:27:16;;;;;;;7.07;2.55;;;;;;;5.99;78.00;103495.22;5033706;28;20079;-68
2022/03/20 00:29:42;;;;;;;4.20;1.85;;;;;;;5.98;77.92;103488.22;5033428;28;20022;-65
2022/03/20 00:32:10;;;;;;;6.00;2.97;;;;;;;5.93;78.61;103502.56;5023546;28;20044;-67
2022/03/20 00:34:36;;;;;;;4.55;2.70;;;;;;;5.92;79.08;103487.69;5026401;28;20033;-68
2022/03/20 00:37:02;;;;;;;5.20;3.13;;;;;;;5.93;79.73;103492.13;5030977;28;20112;-68
2022/03/20 00:39:27;;;;;;;4.63;2.90;;;;;;;5.84;80.06;103488.78;5033225;28;20113;-67
2022/03/20 00:41:53;;;;;;;5.47;3.25;;;;;;;5.78;80.97;103484.00;5034893;28;20071;-67
2022/03/20 00:44:18;;;;;;;8.63;3.40;;;;;;;5.78;81.11;103488.28;5033845;28;20101;-68
2022/03/20 00:46:43;;;;;;;6.95;3.28;;;;;;;5.83;80.87;103481.72;5032446;28;20032;-68
2022/03/20 00:49:09;;;;;;;5.18;3.08;;;;;;;5.77;81.44;103476.03;5028803;28;20041;-67
2022/03/20 00:51:34;;;;;;;6.03;3.33;;;;;;;5.74;82.11;103477.59;5031327;28;20048;-66
2022/03/20 00:54:00;;;;;;;5.85;3.78;;;;;;;5.78;81.78;103475.22;5033540;28;20389;-66
2022/03/20 00:56:27;;;;;;;6.43;3.55;;;;;;;5.70;83.32;103470.31;5033329;28;20022;-66
2022/03/20 00:58:52;;;;;;;5.32;3.45;;;;;;;5.73;83.49;103469.66;5032980;28;20392;-66
2022/03/20 01:01:18;;;;;;;7.47;4.28;;;;;;;5.63;84.20;103462.78;5032673;28;20037;-67
2022/03/20 01:03:43;;;;;;;6.30;4.13;;;;;;;5.58;84.75;103464.13;5031214;28;20034;-66
2022/03/20 01:06:11;;;;;;;8.85;4.28;;;;;;;5.64;85.10;103448.91;5027316;28;20444;-66
2022/03/20 01:08:37;;;;;;;6.97;4.60;;;;;;;5.58;84.99;103445.84;5026927;28;20025;-66
2022/03/20 01:11:07;;;;;;;6.85;4.05;;;;;;;5.65;84.66;103449.84;5030599;28;20025;-66
2022/03/20 01:13:33;;;;;;;6.85;4.47;;;;;;;5.67;84.33;103449.19;5034715;28;20025;-66
2022/03/20 01:15:59;;;;;;;10.75;4.85;;;;;;;5.59;84.98;103450.28;5029809;28;20021;-66
2022/03/20 01:18:27;;;;;;;10.45;5.00;;;;;;;5.51;85.69;103441.84;5032622;28;20402;-66
2022/03/20 01:20:53;;;;;;;8.75;4.68;;;;;;;5.51;85.86;103440.94;5033534;28;20021;-67
2022/03/20 01:23:21;;;;;;;10.80;5.18;;;;;;;5.50;86.74;103428.66;5032625;28;20034;-66
2022/03/20 01:25:47;;;;;;;6.88;4.88;;;;;;;5.52;86.06;103428.00;5032726;28;20069;-67
2022/03/20 01:28:14;;;;;;;7.68;4.80;;;;;;;5.48;85.78;103427.59;5034550;28;20025;-66
2022/03/20 01:30:39;;;;;;;9.70;5.47;;;;;;;5.45;86.77;103422.16;5032380;28;20030;-66
2022/03/20 01:33:04;;;;;;;10.95;5.35;;;;;;;5.43;86.75;103411.59;5032864;28;20499;-67
2022/03/20 01:35:30;;;;;;;8.30;5.45;;;;;;;5.40;87.40;103417.47;5033630;28;20962;-67
2022/03/20 01:37:55;;;;;;;8.82;6.15;;;;;;;5.39;86.84;103409.53;5029683;28;20050;-67
2022/03/20 01:40:20;;;;;;;11.20;6.72;;;;;;;5.33;86.78;103402.13;5022525;28;20033;-67
2022/03/20 01:42:46;;;;;;;8.10;5.60;;;;;;;5.37;86.80;103400.66;5026826;28;20030;-67
2022/03/20 01:45:16;;;;;;;10.57;6.50;;;;;;;5.35;86.74;103400.53;5032033;28;20401;-67
2022/03/20 01:47:41;;;;;;;7.60;6.15;;;;;;;5.29;87.15;103391.28;5023061;28;20108;-67
2022/03/20 01:50:07;;;;;;;11.15;6.65;;;;;;;5.29;87.84;103387.00;5032398;28;20613;-67
2022/03/20 01:52:33;;;;;;;12.45;6.38;;;;;;;5.22;87.45;103382.06;5031296;28;20033;-67
2022/03/20 01:54:58;;;;;;;10.90;6.68;;;;;;;5.15;87.89;103383.28;5033810;28;20029;-68
2022/03/20 01:57:26;;;;;;;12.93;7.22;;;;;;;5.19;87.83;103381.84;5031045;28;20022;-66
2022/03/20 01:59:52;;;;;;;13.70;6.72;;;;;;;5.20;87.22;103381.94;5026851;28;20037;-66
2022/03/20 02:02:19;;;;;;;13.40;7.20;;;;;;;5.16;87.93;103372.06;5031436;28;20048;-67
2022/03/20 02:04:44;;;;;;;11.73;7.75;;;;;;;5.22;87.22;103369.00;5033778;28;20489;-67
2022/03/20 02:07:10;;;;;;;16.23;7.50;;;;;;;5.20;87.00;103365.38;5028399;28;20105;-67
2022/03/20 02:09:37;;;;;;;14.68;7.45;;;;;;;5.18;87.01;103357.44;5020255;28;20034;-67
2022/03/20 02:12:03;;;;;;;13.93;8.02;;;;;;;5.12;87.71;103356.03;5028222;28;20041;-67
2022/03/20 02:14:30;;;;;;;15.38;7.72;;;;;;;5.19;86.90;103351.41;5033456;28;20024;-67
2022/03/20 02:16:56;;;;;;;12.23;7.82;;;;;;;5.15;86.75;103356.28;5032892;28;20470;-66
2022/03/20 02:19:21;;;;;;;14.00;8.43;;;;;;;5.11;87.21;103347.28;5025420;28;20040;-67
2022/03/20 02:21:49;;;;;;;17.08;8.70;;;;;;;5.06;87.73;103343.41;5029438;28;20068;-67
2022/03/20 02:24:31;;;;;;;15.60;8.20;;;;;;;4.97;87.65;103335.75;5032838;28;20055;-67
2022/03/20 02:27:17;;;;;;;13.43;7.85;;;;;;;5.02;88.21;103338.75;5030306;28;20366;-67
2022/03/20 02:29:46;;;;;;;14.90;8.07;;;;;;;4.98;87.97;103331.44;5032978;28;20079;-67
2022/03/20 02:32:14;;;;;;;11.95;8.10;;;;;;;4.95;88.31;103326.91;5028893;28;20060;-67
2022/03/20 02:34:41;;;;;;;15.25;9.13;;;;;;;4.98;87.82;103321.94;5030925;28;20068;-67
2022/03/20 02:37:08;;;;;;;14.05;8.55;;;;;;;4.95;88.18;103321.69;5030122;28;20029;-66
2022/03/20 02:39:34;;;;;;;15.30;8.68;;;;;;;4.93;88.78;103319.75;5032667;28;20531;-67
2022/03/20 02:42:02;;;;;;;13.68;8.27;;;;;;;4.88;89.08;103314.16;5030130;28;20030;-68
2022/03/20 02:44:46;;;;;;;15.27;8.77;;;;;;;4.83;88.95;103310.25;5026228;28;20067;-67
2022/03/20 02:47:12;;;;;;;;;;;;;;;4.71;90.03;103311.09;5032682;28;20037;-67
2022/03/20 02:49:37;;;;;;;16.20;9.40;;;;;;;4.73;90.09;103309.53;5031913;28;19920;-67
2022/03/20 02:52:03;;;;;;;17.52;8.95;;;;;;;4.78;90.15;103304.69;5027049;28;20703;-66
2022/03/20 02:54:28;;;;;;;12.30;8.45;;;;;;;4.67;90.44;103303.81;5029543;28;20044;-67
2022/03/20 02:56:54;;;;;;;14.15;8.80;;;;;;;4.65;91.17;103300.19;5032633;28;20029;-68
2022/03/20 02:59:19;;;;;;;15.00;8.90;;;;;;;4.64;90.91;103295.75;5028550;28;20029;-67
2022/03/20 03:01:45;;;;;;;16.48;9.50;;;;;;;4.66;91.27;103295.88;5025086;28;20549;-66
2022/03/20 03:04:11;;;;;;;16.00;9.10;;;;;;;4.62;91.83;103294.72;5027248;28;20550;-67
2022/03/20 03:06:36;;;;;;;14.52;8.88;;;;;;;4.63;91.71;103293.94;5023900;28;20030;-67
2022/03/20 03:11:45;;;;;;;14.68;9.30;;;;;;;4.63;91.79;103280.00;5022967;28;20508;-66
2022/03/20 03:16:54;;;;;;;14.93;8.98;;;;;;;4.59;92.70;103265.78;5029823;28;20121;-66
2022/03/20 03:19:21;;;;;;;16.05;8.45;;;;;;;4.56;92.75;103266.44;5030993;28;20478;-67
2022/03/20 03:21:46;;;;;;;15.18;8.48;;;;;;;4.48;93.65;103270.13;5028791;28;20026;-66
2022/03/20 03:24:12;;;;;;;19.40;8.30;;;;;;;4.44;93.89;103273.28;5030990;28;20025;-67
2022/03/20 03:26:37;;;;;;;14.05;8.10;;;;;;;4.45;94.07;103277.72;5028712;28;20064;-66
2022/03/20 03:29:03;;;;;;;15.38;8.65;;;;;;;4.46;94.39;103276.91;5030115;28;20388;-67
2022/03/20 03:31:28;;;;;;;13.90;7.93;;;;;;;4.49;94.17;103266.75;5028964;28;20059;-66
2022/03/20 03:36:37;;;;;;;12.60;7.47;;;;;;;4.28;95.54;103257.19;5026939;28;20084;-66
2022/03/20 03:39:02;;;;;;;14.63;8.23;;;;;;;4.27;96.04;103256.25;5032429;28;20473;-66
2022/03/20 03:41:28;;;;;;;15.15;8.27;;;;;;;4.24;96.30;103258.63;5030602;28;20029;-67
2022/03/20 03:43:53;;;;;;;11.73;7.43;;;;;;;4.24;96.50;103245.59;5028602;28;20026;-67
2022/03/20 03:46:19;;;;;;;14.05;7.95;;;;;;;4.20;96.25;103248.75;5030403;28;20492;-67
2022/03/20 03:48:45;;;;;;;13.30;7.28;;;;;;;4.23;96.55;103254.19;5020217;28;20042;-66
2022/03/20 03:51:10;;;;;;;15.93;8.68;;;;;;;4.24;96.64;103248.19;5029991;28;20033;-66
2022/03/20 03:53:36;;;;;;;11.65;7.03;;;;;;;4.22;96.73;103244.56;5031342;28;20063;-66
2022/03/20 03:56:01;;;;;;;15.27;8.73;;;;;;;4.25;96.07;103237.00;5031427;28;20033;-66
2022/03/20 03:58:27;;;;;;;14.60;8.32;;;;;;;4.22;96.19;103240.25;5031490;28;20039;-67
2022/03/20 04:00:52;;;;;;;14.82;8.20;;;;;;;4.24;96.60;103232.56;5030360;28;20037;-67
2022/03/20 04:03:18;;;;;;;14.68;7.95;;;;;;;4.21;96.29;103222.81;5033094;28;20365;-67
2022/03/20 04:05:43;;;;;;;13.05;7.45;;;;;;;4.19;96.83;103213.03;5033774;28;20036;-66
2022/03/20 04:08:09;;;;;;;14.85;8.05;;;;;;;4.21;96.19;103207.16;5034847;28;20471;-67
2022/03/20 04:10:35;;;;;;;12.32;7.82;;;;;;;4.13;97.15;103207.34;5031543;28;20053;-67
2022/03/20 04:13:00;;;;;;;15.50;8.70;;;;;;;4.14;96.61;103206.56;5035832;28;20049;-66
2022/03/20 04:15:25;;;;;;;12.23;7.50;;;;;;;4.12;96.95;103205.53;5027264;28;20434;-68
2022/03/20 04:17:52;;;;;;;12.38;8.00;;;;;;;4.02;97.29;103196.94;5029851;28;20100;-67
2022/03/20 04:20:17;;;;;;;15.10;8.75;;;;;;;4.05;96.95;103198.91;5035293;28;20025;-67
2022/03/20 04:23:42;;;;;;;15.43;8.57;;;;;;;4.00;96.89;103187.19;5033136;28;20028;-67
2022/03/20 04:25:29;;;;;;;17.80;8.45;;;;;;;3.98;96.68;103178.34;5035105;28;20049;-66
2022/03/20 04:27:56;;;;;;;14.68;8.57;;;;;;;3.91;97.02;103179.53;5032063;28;20466;-67
2022/03/20 04:30:25;;;;;;;14.93;8.80;;;;;;;3.96;97.33;103178.22;5031685;28;20457;-67
2022/03/20 04:32:54;;;;;;;14.85;9.27;;;;;;;3.95;96.96;103181.63;5033270;28;20084;-67
2022/03/20 04:35:22;;;;;;;14.48;8.40;;;;;;;3.91;96.81;103176.94;5030104;28;20040;-67
2022/03/20 04:37:48;;;;;;;11.95;8.55;;;;;;;3.87;96.76;103173.16;5033867;28;20474;-67
2022/03/20 04:40:14;;;;;;;14.25;9.30;;;;;;;3.83;96.84;103165.00;5034404;28;20104;-68
2022/03/20 04:42:39;;;;;;;22.10;9.40;;;;;;;3.86;96.59;103173.03;5030869;28;20021;-67
2022/03/20 04:45:05;;;;;;;15.32;8.52;;;;;;;3.86;96.39;103167.84;5032722;28;20474;-66
2022/03/20 04:58:29;;;;;;;15.02;8.75;;;;;;;3.67;96.41;103136.78;5034167;28;20044;-67
2022/03/20 05:00:55;;;;;;;16.83;9.40;;;;;;;3.67;96.93;103136.78;5025202;28;20044;-67
2022/03/20 05:03:21;;;;;;;15.98;9.50;;;;;;;3.67;96.17;103139.38;5034173;28;20087;-67
2022/03/20 05:05:47;;;;;;;18.00;9.13;;;;;;;3.68;96.28;103141.22;5032735;28;20072;-67
2022/03/20 05:08:12;;;;;;;20.40;10.10;;;;;;;3.65;96.07;103133.13;5034796;28;20029;-66
2022/03/20 05:13:22;;;;;;;14.50;9.40;;;;;;;3.63;95.70;103138.22;5033597;28;20049;-66
2022/03/20 05:15:47;;;;;;;16.38;9.40;;;;;;;3.63;95.66;103127.81;5023612;28;20386;-66
2022/03/20 05:18:14;;;;;;;15.68;9.48;;;;;;;3.68;95.19;103117.78;5034956;28;20116;-67
2022/03/20 05:20:43;;;;;;;17.00;10.65;;;;;;;3.63;95.44;103117.38;5032245;28;20036;-67
2022/03/20 05:23:09;;;;;;;17.65;9.93;;;;;;;3.59;95.40;103111.81;5032553;28;20102;-67
2022/03/20 05:25:35;;;;;;;16.90;9.52;;;;;;;3.58;95.58;103110.00;5033065;28;20033;-67
2022/03/20 05:28:00;;;;;;;21.33;10.60;;;;;;;3.52;95.12;103097.38;5032923;28;20071;-67
2022/03/20 05:30:25;;;;;;;19.15;10.75;;;;;;;3.49;95.41;103099.75;5031085;28;20392;-66
2022/03/20 05:32:51;;;;;;;22.13;11.38;;;;;;;3.51;95.59;103098.16;5032597;28;20029;-67
2022/03/20 05:35:17;;;;;;;20.50;10.05;;;;;;;3.52;95.13;103084.38;5031520;28;20017;-67
2022/03/20 05:37:43;;;;;;;15.57;10.38;;;;;;;3.51;94.92;103090.34;5033277;28;20231;-67
2022/03/20 05:40:10;;;;;;;16.88;10.18;;;;;;;3.50;95.26;103078.13;5032332;28;20026;-67
2022/03/20 05:42:38;;;;;;;20.02;11.00;;;;;;;3.51;95.03;103082.53;5033481;28;20487;-67
2022/03/20 05:45:04;;;;;;;18.85;10.88;;;;;;;3.55;94.61;103079.41;5030995;28;20033;-67
2022/03/20 05:47:33;;;;;;;19.40;10.75;;;;;;;3.54;94.54;103080.19;5030755;28;20128;-67
2022/03/20 05:50:01;;;;;;;17.65;10.25;;;;;;;3.54;94.11;103080.19;5025106;28;20042;-66
2022/03/20 05:52:29;;;;;;;24.08;11.05;;;;;;;3.51;94.17;103082.53;5026473;28;20030;-66
2022/03/20 05:54:55;;;;;;;19.38;10.80;;;;;;;3.55;94.17;103084.63;5030728;28;20112;-67
2022/03/20 06:00:04;;;;;;;21.92;11.20;;;;;;;3.55;93.60;103079.41;5026347;28;20078;-67
2022/03/20 06:02:30;;;;;;;21.98;11.80;;;;;;;3.56;93.77;103069.94;5029325;28;21804;-67
2022/03/20 06:04:55;;;;;;;19.27;10.70;;;;;;;3.52;93.71;103063.56;5030551;28;20112;-67
2022/03/20 06:07:20;;;;;;;17.25;10.18;;;;;;;3.53;94.30;103067.97;5031755;28;20017;-66
2022/03/20 06:09:46;;;;;;;19.27;11.27;;;;;;;3.52;94.41;103067.06;5028002;28;20026;-66
2022/03/20 06:12:11;;;;;;;20.63;11.40;;;;;;;3.63;93.39;103056.59;5027871;28;20109;-66
2022/03/20 06:14:36;;;;;;;21.00;10.73;;;;;;;3.64;93.49;103055.84;5032373;28;20461;-66
2022/03/20 06:17:04;;;;;;;23.13;11.27;;;;;;;3.62;93.04;103055.72;5030799;28;20487;-66
2022/03/20 06:19:29;;;;;;;22.27;12.13;;;;;;;3.68;92.97;103050.97;5032015;28;20033;-66
2022/03/20 06:21:55;;;;;;;20.70;11.95;;;;;;;3.71;92.14;103046.00;5030477;28;20021;-67
2022/03/20 06:24:20;;;;;;;22.52;11.15;;;;;;;3.77;92.38;103044.69;5031326;28;20021;-67
2022/03/20 06:26:45;;;;;;;21.48;11.23;;;;;;;3.80;91.64;103039.72;5031136;28;20108;-67
2022/03/20 06:29:11;;;;;;;26.20;11.95;;;;;;;3.85;91.03;103041.00;5029414;28;20033;-66
2022/03/20 06:31:36;;;;;;;18.10;11.88;;;;;;;3.90;90.61;103031.84;5026586;28;20022;-66
2022/03/20 06:34:02;;;;;;;21.63;12.48;;;;;;;3.95;89.49;103040.97;5030386;28;20036;-67
2022/03/20 06:36:27;;;;;;;20.85;12.52;;;;;;;3.99;89.21;103043.00;5031122;28;20032;-66
2022/03/20 06:38:53;;;;;;;22.50;11.10;;;;;;;4.07;88.31;103045.31;5026552;28;20426;-67
2022/03/20 06:41:19;;;;;;;20.48;12.73;;;;;;;4.14;87.99;103050.22;5031963;28;20053;-66
2022/03/20 06:43:44;;;;;;;20.05;13.32;;;;;;;4.14;87.60;103047.63;5032208;28;20025;-67
2022/03/20 06:46:10;;;;;;;21.67;11.60;;;;;;;4.14;88.59;103043.31;5030324;28;20500;-66
2022/03/20 06:48:36;;;;;;;21.23;12.05;;;;;;;4.15;89.30;103033.78;5026982;28;20080;-67
2022/03/20 06:51:04;;;;;;;23.98;12.77;;;;;;;4.15;88.57;103041.59;5030718;28;20128;-67
2022/03/20 06:53:29;;;;;;;21.92;11.88;;;;;;;4.20;86.44;103042.88;5029435;28;20512;-67
2022/03/20 06:55:55;;;;;;;23.15;12.20;;;;;;;4.24;86.17;103044.03;5032558;28;20103;-67
2022/03/20 06:58:22;;;;;;;21.70;11.95;;;;;;;4.18;86.82;103031.44;5031042;28;20116;-66
2022/03/20 07:00:48;;;;;;;21.02;12.25;;;;;;;4.22;85.83;103025.69;5029188;28;20025;-67
2022/03/20 07:03:13;;;;;;;21.05;11.57;;;;;;;4.20;86.25;103022.03;5030161;28;20112;-66
2022/03/20 07:05:39;;;;;;;19.88;12.07;;;;;;;4.28;85.73;103017.41;5029667;28;20057;-66
2022/03/20 07:08:06;;;;;;;25.58;13.02;;;;;;;4.29;84.56;103017.53;5029153;28;20485;-67
2022/03/20 07:10:33;;;;;;;19.88;12.73;;;;;;;4.25;84.57;103014.59;5030182;28;20045;-67
2022/03/20 07:15:45;;;;;;;21.13;11.80;;;;;;;4.41;85.32;103001.00;5030062;28;20433;-67
2022/03/20 07:18:12;;;;;;;19.70;11.70;;;;;;;4.41;84.97;102998.41;5026651;28;20025;-67
2022/03/20 07:20:38;;;;;;;19.10;11.68;;;;;;;4.44;84.65;103001.28;5018401;28;20029;-67
2022/03/20 07:23:07;;;;;;;22.80;12.70;;;;;;;4.48;84.34;103004.22;5027800;28;20048;-67
2022/03/20 07:31:02;;;;;;;20.92;12.02;;;;;;;4.66;82.79;102991.66;5029294;28;20076;-67
2022/03/20 07:33:27;;;;;;;19.92;11.90;;;;;;;4.81;82.56;102984.06;5027234;28;20116;-66
2022/03/20 07:35:52;;;;;;;20.13;11.95;;;;;;;4.91;81.86;102985.69;5030199;28;20134;-66
2022/03/20 07:38:18;;;;;;;21.83;12.80;;;;;;;4.90;81.39;102973.44;5033020;28;20474;-66
2022/03/20 07:40:43;;;;;;;19.02;11.05;;;;;;;4.99;80.99;102974.13;5028454;28;20033;-67
2022/03/20 07:43:08;;;;;;;19.52;11.93;;;;;;;5.00;79.54;102955.03;5028359;28;20408;-67
2022/03/20 07:45:34;;;;;;;20.30;12.45;;;;;;;4.96;79.62;102955.59;5031707;28;20025;-66
2022/03/20 07:48:00;;;;;;;21.67;12.07;;;;;;;5.01;79.81;102950.75;5034471;28;20025;-69
2022/03/20 07:50:25;;;;;;;20.85;12.20;;;;;;;5.10;79.69;102950.50;5032591;28;20037;-69
2022/03/20 07:52:50;;;;;;;19.20;11.70;;;;;;;5.18;78.79;102938.91;5031050;28;20037;-69
2022/03/20 07:55:17;;;;;;;23.88;12.65;;;;;;;5.15;78.23;102933.47;5034495;28;20025;-69
2022/03/20 07:57:43;;;;;;;21.90;12.57;;;;;;;5.11;78.58;102931.44;5046651;28;20026;-69
2022/03/20 08:00:09;;;;;;;20.92;12.88;;;;;;;5.06;78.15;102923.28;5032361;28;20425;-70
2022/03/20 08:02:34;;;;;;;22.13;13.00;;;;;;;5.04;78.61;102933.59;5028701;28;20032;-70
2022/03/20 08:05:00;;;;;;;24.38;12.73;;;;;;;5.16;77.08;102928.34;5034565;28;20033;-67
2022/03/20 08:07:26;;;;;;;23.00;12.90;;;;;;;5.20;77.49;102919.06;5031801;28;20037;-67
2022/03/20 08:09:51;;;;;;;20.25;12.75;;;;;;;5.18;77.10;102920.63;5030786;28;20025;-67
2022/03/20 08:12:16;;;;;;;20.55;12.90;;;;;;;5.21;76.91;102919.16;5034574;28;20071;-67
2022/03/20 08:14:42;;;;;;;19.35;12.77;;;;;;;5.31;78.29;102905.06;5030761;28;20021;-67
2022/03/20 08:17:08;;;;;;;24.23;13.82;;;;;;;5.31;77.21;102909.38;5035758;28;20025;-68
2022/03/20 08:19:36;;;;;;;21.20;12.30;;;;;;;5.32;75.72;102906.00;5030128;28;20033;-67
2022/03/20 08:22:05;;;;;;;19.90;12.90;;;;;;;5.35;75.92;102898.38;5023754;28;20033;-68
2022/03/20 08:24:30;;;;;;;20.90;13.13;;;;;;;5.50;76.01;102907.28;5033649;28;20096;-67
2022/03/20 08:26:57;;;;;;;22.38;12.82;;;;;;;5.58;74.15;102905.22;5033790;28;20459;-67
2022/03/20 08:29:23;;;;;;;23.60;13.90;;;;;;;5.43;74.93;102904.16;5035192;28;20469;-66
2022/03/20 08:31:48;;;;;;;19.00;12.27;;;;;;;5.44;73.96;102901.63;5028727;28;20037;-67
2022/03/20 08:34:15;;;;;;;20.63;12.55;;;;;;;5.40;75.20;102904.81;5034030;28;20029;-67
2022/03/20 08:36:44;;;;;;;20.90;13.57;;;;;;;5.36;74.45;102910.63;5034186;28;20033;-67
2022/03/20 08:39:09;;;;;;;24.65;13.52;;;;;;;5.34;74.76;102905.28;5032451;28;20025;-68
2022/03/20 08:41:35;;;;;;;28.40;13.35;;;;;;;5.31;74.50;102902.44;5029257;28;20028;-67
2022/03/20 08:44:08;;;;;;;24.20;13.73;;;;;;;5.37;76.13;102892.47;5031682;28;20405;-67
2022/03/20 08:46:33;;;;;;;23.70;13.68;;;;;;;5.42;75.00;102904.94;5025943;28;20113;-66
2022/03/20 08:49:03;;;;;;;22.10;12.65;;;;;;;5.58;74.18;102905.22;5030339;28;20138;-68
2022/03/20 08:51:29;;;;;;;22.15;13.95;;;;;;;5.65;74.33;102899.59;5026929;28;20154;-68
2022/03/20 08:53:54;;;;;;;21.90;13.35;;;;;;;5.68;73.09;102880.63;5022254;28;20025;-67
2022/03/20 08:56:20;;;;;;;26.60;15.02;;;;;;;5.74;73.47;102878.47;5031783;28;20025;-68
2022/03/20 08:58:46;;;;;;;19.83;13.32;;;;;;;5.77;74.02;102870.81;5033794;28;20052;-68
2022/03/20 09:01:12;;;;;;;22.48;13.38;;;;;;;5.86;73.49;102865.31;5017445;28;20017;-69
2022/03/20 09:03:37;;;;;;;24.10;13.82;;;;;;;5.82;72.25;102876.34;5032402;28;20487;-68
2022/03/20 09:06:03;;;;;;;25.67;13.88;;;;;;;5.89;72.41;102882.13;5032365;28;20909;-67
2022/03/20 09:08:28;;;;;;;20.42;13.32;;;;;;;5.79;72.81;102878.75;5031106;28;20025;-68
2022/03/20 09:10:53;;;;;;;23.15;14.63;;;;;;;5.80;72.43;102871.03;5033210;28;20055;-68
2022/03/20 09:13:18;;;;;;;22.77;14.52;;;;;;;5.73;72.99;102864.47;5033142;28;20763;-68
2022/03/20 09:15:44;;;;;;;26.08;13.85;;;;;;;5.79;73.14;102865.69;5029791;28;20014;-67
2022/03/20 09:20:53;;;;;;;23.48;13.95;;;;;;;5.82;70.71;102868.53;5026617;28;20040;-67
2022/03/20 09:23:18;;;;;;;25.83;14.57;;;;;;;5.79;73.37;102868.31;5028068;28;20021;-67
2022/03/20 09:25:44;;;;;;;30.77;15.10;;;;;;;5.74;72.46;102858.47;5026751;28;20025;-67
2022/03/20 09:28:11;;;;;;;22.95;13.48;;;;;;;5.71;72.95;102860.88;5024502;28;20056;-67
2022/03/20 09:30:38;;;;;;;23.30;13.38;;;;;;;5.71;73.07;102866.09;5031642;28;20104;-66
2022/03/20 09:33:05;;;;;;;27.85;13.98;;;;;;;5.73;72.47;102856.63;5030584;28;20028;-67
2022/03/20 09:35:34;;;;;;;25.92;14.50;;;;;;;5.65;73.70;102854.31;5031457;28;20022;-67
2022/03/20 09:38:00;;;;;;;23.35;14.70;;;;;;;5.78;72.53;102861.28;5027640;28;20108;-67
2022/03/20 09:40:26;;;;;;;23.50;14.55;;;;;;;5.67;72.88;102857.91;5024468;28;20017;-68
2022/03/20 09:42:51;;;;;;;26.65;14.60;;;;;;;5.70;73.83;102859.03;5027955;28;20381;-67
2022/03/20 09:45:18;;;;;;;27.50;14.60;;;;;;;5.78;72.06;102853.44;5028601;28;20498;-68
2022/03/20 09:47:45;;;;;;;33.38;14.65;;;;;;;5.82;72.03;102850.22;5029503;28;20029;-68
2022/03/20 09:50:12;;;;;;;38.88;14.70;;;;;;;5.88;71.72;102848.06;5029812;28;20052;-67
2022/03/20 09:52:39;;;;;;;35.53;15.27;;;;;;;5.99;71.73;102849.72;5029457;28;20037;-68
2022/03/20 09:55:06;;;;;;;29.25;14.45;;;;;;;6.05;71.16;102857.06;5033165;28;20037;-68
2022/03/20 09:57:32;;;;;;;32.92;15.30;;;;;;;6.13;70.86;102855.88;5033062;28;20028;-68
2022/03/20 10:00:01;;;;;;;53.17;16.52;;;;;;;6.18;70.00;102864.03;5031354;28;20033;-70
2022/03/20 10:02:28;;;;;;;27.92;15.50;;;;;;;6.21;70.40;102865.16;5032603;28;20385;-70
2022/03/20 10:04:55;;;;;;;23.55;15.48;;;;;;;6.32;69.73;102862.31;5030896;28;20258;-69
2022/03/20 10:07:23;;;;;;;24.48;14.00;;;;;;;6.45;69.16;102864.94;5032129;28;20029;-70
2022/03/20 10:10:12;;;;;;;24.15;14.77;;;;;;;6.65;69.20;102862.75;5024616;28;20033;-69
2022/03/20 10:12:43;;;;;;;26.33;15.80;;;;;;;6.68;67.30;102856.00;5031461;28;20030;-68
2022/03/20 10:15:12;;;;;;;25.25;15.10;;;;;;;6.58;66.14;102845.75;5032255;28;20050;-68
2022/03/20 10:17:39;;;;;;;26.88;16.20;;;;;;;6.55;65.83;102837.69;5030197;28;20028;-70
2022/03/20 10:20:16;;;;;;;26.75;14.68;;;;;;;6.54;66.66;102841.13;5026450;28;20387;-69
2022/03/20 10:22:42;;;;;;;24.10;14.57;;;;;;;6.54;65.37;102828.06;5032233;28;20060;-70
2022/03/20 10:25:11;;;;;;;28.48;15.63;;;;;;;6.53;63.78;102818.38;5031134;28;20033;-70
2022/03/20 10:27:37;;;;;;;30.25;14.90;;;;;;;6.62;63.80;102816.38;5028996;28;20065;-70
2022/03/20 10:30:08;;;;;;;24.63;14.43;;;;;;;6.73;62.86;102810.09;5029332;28;20025;-71
2022/03/20 10:32:33;;;;;;;26.92;15.63;;;;;;;6.90;62.73;102807.66;5021348;28;20026;-70
2022/03/20 10:35:01;;;;;;;103.35;19.08;;;;;;;7.12;62.38;102799.44;5023639;28;20434;-70
2022/03/20 10:37:47;;;;;;;83.78;18.23;;;;;;;7.67;61.07;102795.78;5028581;28;20111;-70
2022/03/20 10:40:17;;;;;;;36.33;15.77;;;;;;;8.18;59.66;102780.38;5031744;28;20037;-69
2022/03/20 10:43:03;;;;;;;30.88;16.42;;;;;;;8.80;58.05;102769.03;5031035;28;20041;-69
2022/03/20 10:45:29;;;;;;;32.50;16.33;;;;;;;9.29;57.54;102760.25;5027317;28;20037;-69
2022/03/20 10:48:01;;;;;;;25.90;16.50;;;;;;;9.68;54.36;102750.00;5032574;28;20021;-71
2022/03/20 10:50:26;;;;;;;34.83;17.35;;;;;;;10.06;54.32;102761.56;5029330;28;20381;-70
2022/03/20 10:53:06;;;;;;;30.15;17.02;;;;;;;10.26;51.65;102764.28;5031307;28;20116;-71
2022/03/20 10:55:32;;;;;;;28.00;17.33;;;;;;;9.73;52.29;102764.31;5031537;28;20071;-70
2022/03/20 10:58:17;;;;;;;28.88;17.98;;;;;;;9.43;53.70;102761.91;5031555;28;20500;-71
2022/03/20 11:00:48;;;;;;;34.33;18.90;;;;;;;9.78;52.60;102773.34;5029787;28;20042;-71
2022/03/20 11:03:21;;;;;;;28.42;18.45;;;;;;;9.64;53.86;102779.59;5032157;28;20022;-70
2022/03/20 11:05:47;;;;;;;33.92;18.00;;;;;;;9.70;53.01;102773.75;5030536;28;20032;-71
2022/03/20 11:08:12;;;;;;;27.83;17.63;;;;;;;9.38;54.64;102776.50;5028698;28;20025;-70
2022/03/20 11:10:39;;;;;;;41.97;19.08;;;;;;;9.38;54.45;102775.63;5030543;28;20081;-71
2022/03/20 11:13:05;;;;;;;29.13;18.77;;;;;;;9.29;55.21;102778.66;5031870;28;20382;-70
2022/03/20 11:15:33;;;;;;;33.95;20.10;;;;;;;9.23;55.80;102778.34;5029868;28;20029;-70
2022/03/20 11:17:59;;;;;;;32.83;19.90;;;;;;;8.98;56.29;102787.53;5031002;28;20055;-70
2022/03/20 11:20:29;;;;;;;48.60;21.23;;;;;;;8.80;58.00;102797.91;5029458;28;20025;-69
2022/03/20 11:22:55;;;;;;;28.25;18.73;;;;;;;8.50;57.84;102789.22;5030892;28;20096;-69
2022/03/20 11:25:25;;;;;;;35.72;19.33;;;;;;;8.31;57.90;102801.25;5030076;28;20109;-70
2022/03/20 11:27:55;;;;;;;41.53;20.58;;;;;;;8.17;58.36;102789.09;5032544;28;20041;-69
2022/03/20 11:30:26;;;;;;;119.68;25.00;;;;;;;8.21;58.86;102791.97;5025294;28;20074;-72
2022/03/20 11:32:51;;;;;;;70.53;22.35;;;;;;;8.16;59.83;102792.53;5032362;28;20064;-72
2022/03/20 11:35:22;;;;;;;44.88;19.25;;;;;;;8.24;60.46;102783.38;5031039;28;20034;-73
2022/03/20 11:37:48;;;;;;;57.00;20.55;;;;;;;8.25;58.83;102774.69;5028274;28;20567;-70
2022/03/20 11:40:22;;;;;;;168.75;26.42;;;;;;;8.47;57.35;102783.81;5027809;28;20037;-72
2022/03/20 11:43:10;;;;;;;26.35;16.60;;;;;;;8.73;55.10;102778.28;5026267;28;20028;-73
2022/03/20 11:45:35;;;;;;;30.25;19.13;;;;;;;9.21;56.56;102782.59;5027573;28;20036;-73
2022/03/20 11:48:13;;;;;;;32.42;17.98;;;;;;;9.79;54.86;102785.66;5030739;28;20045;-73
2022/03/20 11:50:49;;;;;;;33.35;18.85;;;;;;;10.04;54.48;102791.25;5031018;28;20046;-72
2022/03/20 11:53:26;;;;;;;30.85;18.38;;;;;;;10.32;55.20;102788.25;5026291;28;20044;-72
2022/03/20 11:55:52;;;;;;;29.27;18.95;;;;;;;9.84;55.87;102800.78;5020621;28;20369;-73